sensor_id;sensor_type;location;lat;lon;timestamp;P1;durP1;ratioP1;P2;durP2;ratioP2
66702;SDS011;60933;46.398;-63.798;2023-07-02T00:01:24;17.45;;;14.98;;
66702;SDS011;60933;46.398;-63.798;2023-07-02T00:03:50;9.98;;;6.88;;
66702;SDS011;60933;46.398;-63.798;2023-07-02T00:06:16;8.57;;;5.70;;
66702;SDS011;60933;46.398;-63.798;2023-07-02T00:08:42;9.48;;;6.78;;
66702;SDS011;60933;46.398;-63.798;2023-07-02T00:11:08;8.02;;;7.05;;
66702;SDS011;60933;46.398;-63.798;2023-07-02T00:13:38;8.05;;;6.18;;
66702;SDS011;60933;46.398;-63.798;2023-07-02T00:16:04;9.15;;;6.57;;
66702;SDS011;60933;46.398;-63.798;2023-07-02T00:18:30;8.25;;;5.97;;
66702;SDS011;60933;46.398;-63.798;2023-07-02T00:21:02;10.27;;;8.40;;
66702;SDS011;60933;46.398;-63.798;2023-07-02T00:23:29;8.95;;;7.50;;
66702;SDS011;60933;46.398;-63.798;2023-07-02T00:25:58;15.20;;;12.68;;
66702;SDS011;60933;46.398;-63.798;2023-07-02T00:28:24;9.98;;;7.93;;
66702;SDS011;60933;46.398;-63.798;2023-07-02T00:30:50;10.73;;;7.35;;
66702;SDS011;60933;46.398;-63.798;2023-07-02T00:33:16;11.60;;;9.10;;
66702;SDS011;60933;46.398;-63.798;2023-07-02T00:35:43;10.85;;;7.07;;
66702;SDS011;60933;46.398;-63.798;2023-07-02T00:38:09;9.43;;;6.80;;
66702;SDS011;60933;46.398;-63.798;2023-07-02T00:40:35;10.35;;;6.90;;
66702;SDS011;60933;46.398;-63.798;2023-07-02T00:43:02;11.38;;;7.00;;
66702;SDS011;60933;46.398;-63.798;2023-07-02T00:45:28;9.80;;;6.45;;
66702;SDS011;60933;46.398;-63.798;2023-07-02T00:47:54;9.68;;;6.20;;
66702;SDS011;60933;46.398;-63.798;2023-07-02T00:50:21;8.43;;;5.78;;
66702;SDS011;60933;46.398;-63.798;2023-07-02T00:52:48;10.02;;;8.07;;
66702;SDS011;60933;46.398;-63.798;2023-07-02T00:55:14;8.32;;;6.22;;
66702;SDS011;60933;46.398;-63.798;2023-07-02T00:57:41;7.55;;;5.93;;
66702;SDS011;60933;46.398;-63.798;2023-07-02T01:00:12;7.10;;;4.85;;
66702;SDS011;60933;46.398;-63.798;2023-07-02T01:02:38;10.85;;;9.02;;
66702;SDS011;60933;46.398;-63.798;2023-07-02T01:05:13;7.93;;;6.97;;
66702;SDS011;60933;46.398;-63.798;2023-07-02T01:07:40;8.75;;;6.43;;
66702;SDS011;60933;46.398;-63.798;2023-07-02T01:10:06;8.75;;;7.85;;
66702;SDS011;60933;46.398;-63.798;2023-07-02T01:12:35;6.53;;;5.78;;
66702;SDS011;60933;46.398;-63.798;2023-07-02T01:15:03;8.98;;;5.57;;
66702;SDS011;60933;46.398;-63.798;2023-07-02T01:17:32;6.90;;;5.72;;
66702;SDS011;60933;46.398;-63.798;2023-07-02T01:20:09;7.22;;;5.00;;
66702;SDS011;60933;46.398;-63.798;2023-07-02T01:22:37;10.75;;;6.80;;
66702;SDS011;60933;46.398;-63.798;2023-07-02T01:25:03;5.63;;;4.82;;
66702;SDS011;60933;46.398;-63.798;2023-07-02T01:27:31;6.10;;;4.47;;
66702;SDS011;60933;46.398;-63.798;2023-07-02T01:29:57;5.50;;;4.20;;
66702;SDS011;60933;46.398;-63.798;2023-07-02T01:32:23;5.93;;;4.25;;
66702;SDS011;60933;46.398;-63.798;2023-07-02T01:34:50;5.68;;;4.53;;
66702;SDS011;60933;46.398;-63.798;2023-07-02T01:37:18;6.70;;;4.53;;
66702;SDS011;60933;46.398;-63.798;2023-07-02T01:39:45;6.25;;;3.92;;
66702;SDS011;60933;46.398;-63.798;2023-07-02T01:42:15;7.00;;;4.63;;
66702;SDS011;60933;46.398;-63.798;2023-07-02T01:44:45;5.70;;;3.92;;
66702;SDS011;60933;46.398;-63.798;2023-07-02T01:47:12;5.18;;;3.92;;
66702;SDS011;60933;46.398;-63.798;2023-07-02T01:49:39;6.00;;;4.38;;
66702;SDS011;60933;46.398;-63.798;2023-07-02T01:52:05;5.70;;;3.95;;
66702;SDS011;60933;46.398;-63.798;2023-07-02T01:54:32;5.10;;;4.07;;
66702;SDS011;60933;46.398;-63.798;2023-07-02T01:56:59;5.82;;;3.65;;
66702;SDS011;60933;46.398;-63.798;2023-07-02T01:59:25;5.30;;;3.83;;
66702;SDS011;60933;46.398;-63.798;2023-07-02T02:01:52;5.78;;;3.90;;
66702;SDS011;60933;46.398;-63.798;2023-07-02T02:04:18;4.95;;;3.45;;
66702;SDS011;60933;46.398;-63.798;2023-07-02T02:06:44;7.07;;;4.25;;
66702;SDS011;60933;46.398;-63.798;2023-07-02T02:09:11;6.47;;;4.47;;
66702;SDS011;60933;46.398;-63.798;2023-07-02T02:11:43;5.57;;;3.65;;
66702;SDS011;60933;46.398;-63.798;2023-07-02T02:14:10;4.35;;;3.50;;
66702;SDS011;60933;46.398;-63.798;2023-07-02T02:16:36;6.82;;;4.20;;
66702;SDS011;60933;46.398;-63.798;2023-07-02T02:19:03;5.00;;;3.70;;
66702;SDS011;60933;46.398;-63.798;2023-07-02T02:21:30;5.30;;;3.33;;
66702;SDS011;60933;46.398;-63.798;2023-07-02T02:23:56;5.18;;;3.35;;
66702;SDS011;60933;46.398;-63.798;2023-07-02T02:26:23;6.18;;;3.92;;
66702;SDS011;60933;46.398;-63.798;2023-07-02T02:28:50;4.95;;;3.58;;
66702;SDS011;60933;46.398;-63.798;2023-07-02T02:31:17;7.28;;;3.58;;
66702;SDS011;60933;46.398;-63.798;2023-07-02T02:33:43;7.15;;;3.78;;
66702;SDS011;60933;46.398;-63.798;2023-07-02T02:36:09;4.72;;;2.83;;
66702;SDS011;60933;46.398;-63.798;2023-07-02T02:38:35;5.78;;;3.22;;
66702;SDS011;60933;46.398;-63.798;2023-07-02T02:41:03;4.70;;;3.55;;
66702;SDS011;60933;46.398;-63.798;2023-07-02T02:43:29;4.88;;;3.58;;
66702;SDS011;60933;46.398;-63.798;2023-07-02T02:45:55;4.90;;;3.35;;
66702;SDS011;60933;46.398;-63.798;2023-07-02T02:48:21;4.53;;;3.42;;
66702;SDS011;60933;46.398;-63.798;2023-07-02T02:50:48;4.55;;;2.45;;
66702;SDS011;60933;46.398;-63.798;2023-07-02T02:53:14;5.03;;;3.88;;
66702;SDS011;60933;46.398;-63.798;2023-07-02T02:55:40;5.55;;;3.95;;
66702;SDS011;60933;46.398;-63.798;2023-07-02T02:58:06;4.93;;;3.17;;
66702;SDS011;60933;46.398;-63.798;2023-07-02T03:00:32;6.15;;;3.83;;
66702;SDS011;60933;46.398;-63.798;2023-07-02T03:02:59;5.18;;;3.20;;
66702;SDS011;60933;46.398;-63.798;2023-07-02T03:05:25;3.97;;;3.58;;
66702;SDS011;60933;46.398;-63.798;2023-07-02T03:07:51;4.45;;;2.97;;
66702;SDS011;60933;46.398;-63.798;2023-07-02T03:10:17;3.60;;;2.95;;
66702;SDS011;60933;46.398;-63.798;2023-07-02T03:12:44;3.97;;;3.20;;
66702;SDS011;60933;46.398;-63.798;2023-07-02T03:15:10;3.83;;;2.88;;
66702;SDS011;60933;46.398;-63.798;2023-07-02T03:17:36;6.15;;;3.85;;
66702;SDS011;60933;46.398;-63.798;2023-07-02T03:20:02;5.50;;;3.40;;
66702;SDS011;60933;46.398;-63.798;2023-07-02T03:22:35;3.85;;;3.28;;
66702;SDS011;60933;46.398;-63.798;2023-07-02T03:25:01;7.57;;;3.78;;
66702;SDS011;60933;46.398;-63.798;2023-07-02T03:27:28;6.22;;;3.25;;
66702;SDS011;60933;46.398;-63.798;2023-07-02T03:29:54;4.40;;;3.58;;
66702;SDS011;60933;46.398;-63.798;2023-07-02T03:32:20;4.15;;;2.78;;
66702;SDS011;60933;46.398;-63.798;2023-07-02T03:34:46;4.20;;;2.95;;
66702;SDS011;60933;46.398;-63.798;2023-07-02T03:37:12;3.80;;;3.22;;
66702;SDS011;60933;46.398;-63.798;2023-07-02T03:39:38;4.32;;;3.22;;
66702;SDS011;60933;46.398;-63.798;2023-07-02T03:42:05;7.35;;;3.55;;
66702;SDS011;60933;46.398;-63.798;2023-07-02T03:44:31;3.65;;;2.90;;
66702;SDS011;60933;46.398;-63.798;2023-07-02T03:46:57;4.00;;;3.53;;
66702;SDS011;60933;46.398;-63.798;2023-07-02T03:49:23;4.20;;;3.25;;
66702;SDS011;60933;46.398;-63.798;2023-07-02T03:51:49;4.35;;;3.25;;
66702;SDS011;60933;46.398;-63.798;2023-07-02T03:54:16;4.35;;;3.28;;
66702;SDS011;60933;46.398;-63.798;2023-07-02T03:56:43;6.60;;;3.95;;
66702;SDS011;60933;46.398;-63.798;2023-07-02T03:59:09;6.95;;;3.83;;
66702;SDS011;60933;46.398;-63.798;2023-07-02T04:01:35;5.63;;;3.63;;
66702;SDS011;60933;46.398;-63.798;2023-07-02T04:04:01;3.40;;;3.10;;
66702;SDS011;60933;46.398;-63.798;2023-07-02T04:06:27;4.80;;;3.60;;
66702;SDS011;60933;46.398;-63.798;2023-07-02T04:08:53;4.60;;;3.22;;
66702;SDS011;60933;46.398;-63.798;2023-07-02T04:11:19;3.50;;;2.60;;
66702;SDS011;60933;46.398;-63.798;2023-07-02T04:13:45;4.60;;;3.17;;
66702;SDS011;60933;46.398;-63.798;2023-07-02T04:16:11;5.07;;;3.10;;
66702;SDS011;60933;46.398;-63.798;2023-07-02T04:18:37;3.80;;;3.40;;
66702;SDS011;60933;46.398;-63.798;2023-07-02T04:21:04;4.25;;;3.42;;
66702;SDS011;60933;46.398;-63.798;2023-07-02T04:23:30;4.97;;;3.47;;
66702;SDS011;60933;46.398;-63.798;2023-07-02T04:25:56;4.32;;;3.67;;
66702;SDS011;60933;46.398;-63.798;2023-07-02T04:28:22;4.93;;;3.40;;
66702;SDS011;60933;46.398;-63.798;2023-07-02T04:30:48;5.30;;;3.47;;
66702;SDS011;60933;46.398;-63.798;2023-07-02T04:33:17;4.95;;;3.42;;
66702;SDS011;60933;46.398;-63.798;2023-07-02T04:35:43;4.18;;;3.60;;
66702;SDS011;60933;46.398;-63.798;2023-07-02T04:38:09;4.45;;;3.72;;
66702;SDS011;60933;46.398;-63.798;2023-07-02T04:40:35;4.18;;;3.30;;
66702;SDS011;60933;46.398;-63.798;2023-07-02T04:43:01;4.45;;;3.58;;
66702;SDS011;60933;46.398;-63.798;2023-07-02T04:45:29;6.40;;;3.60;;
66702;SDS011;60933;46.398;-63.798;2023-07-02T04:48:02;6.00;;;4.47;;
66702;SDS011;60933;46.398;-63.798;2023-07-02T04:50:29;5.35;;;3.80;;
66702;SDS011;60933;46.398;-63.798;2023-07-02T04:52:55;6.20;;;4.75;;
66702;SDS011;60933;46.398;-63.798;2023-07-02T04:55:21;5.65;;;3.83;;
66702;SDS011;60933;46.398;-63.798;2023-07-02T04:57:47;4.45;;;3.75;;
66702;SDS011;60933;46.398;-63.798;2023-07-02T05:00:13;5.30;;;4.60;;
66702;SDS011;60933;46.398;-63.798;2023-07-02T05:02:40;4.72;;;3.80;;
66702;SDS011;60933;46.398;-63.798;2023-07-02T05:05:06;6.10;;;3.67;;
66702;SDS011;60933;46.398;-63.798;2023-07-02T05:07:32;4.53;;;3.55;;
66702;SDS011;60933;46.398;-63.798;2023-07-02T05:09:59;5.78;;;3.05;;
66702;SDS011;60933;46.398;-63.798;2023-07-02T05:12:25;6.50;;;3.40;;
66702;SDS011;60933;46.398;-63.798;2023-07-02T05:14:51;4.82;;;3.58;;
66702;SDS011;60933;46.398;-63.798;2023-07-02T05:17:17;5.30;;;3.90;;
66702;SDS011;60933;46.398;-63.798;2023-07-02T05:19:43;6.18;;;4.28;;
66702;SDS011;60933;46.398;-63.798;2023-07-02T05:22:09;6.68;;;4.20;;
66702;SDS011;60933;46.398;-63.798;2023-07-02T05:24:36;4.88;;;3.88;;
66702;SDS011;60933;46.398;-63.798;2023-07-02T05:27:02;6.28;;;4.40;;
66702;SDS011;60933;46.398;-63.798;2023-07-02T05:29:28;5.57;;;4.07;;
66702;SDS011;60933;46.398;-63.798;2023-07-02T05:31:54;5.90;;;3.90;;
66702;SDS011;60933;46.398;-63.798;2023-07-02T05:34:20;6.82;;;4.75;;
66702;SDS011;60933;46.398;-63.798;2023-07-02T05:36:47;5.95;;;4.20;;
66702;SDS011;60933;46.398;-63.798;2023-07-02T05:39:13;6.78;;;4.47;;
66702;SDS011;60933;46.398;-63.798;2023-07-02T05:41:39;8.43;;;4.82;;
66702;SDS011;60933;46.398;-63.798;2023-07-02T05:44:05;6.35;;;4.50;;
66702;SDS011;60933;46.398;-63.798;2023-07-02T05:46:31;5.38;;;4.55;;
66702;SDS011;60933;46.398;-63.798;2023-07-02T05:48:57;5.53;;;4.05;;
66702;SDS011;60933;46.398;-63.798;2023-07-02T05:51:25;6.10;;;4.20;;
66702;SDS011;60933;46.398;-63.798;2023-07-02T05:53:51;6.03;;;4.65;;
66702;SDS011;60933;46.398;-63.798;2023-07-02T05:56:17;7.47;;;4.47;;
66702;SDS011;60933;46.398;-63.798;2023-07-02T05:58:45;7.05;;;4.53;;
66702;SDS011;60933;46.398;-63.798;2023-07-02T06:01:12;5.22;;;4.15;;
66702;SDS011;60933;46.398;-63.798;2023-07-02T06:03:39;5.18;;;4.10;;
66702;SDS011;60933;46.398;-63.798;2023-07-02T06:06:05;5.68;;;4.22;;
66702;SDS011;60933;46.398;-63.798;2023-07-02T06:08:31;5.55;;;4.28;;
66702;SDS011;60933;46.398;-63.798;2023-07-02T06:10:57;5.90;;;4.43;;
66702;SDS011;60933;46.398;-63.798;2023-07-02T06:13:23;8.00;;;4.55;;
66702;SDS011;60933;46.398;-63.798;2023-07-02T06:15:49;6.35;;;4.50;;
66702;SDS011;60933;46.398;-63.798;2023-07-02T06:18:15;6.13;;;3.88;;
66702;SDS011;60933;46.398;-63.798;2023-07-02T06:20:42;5.60;;;4.47;;
66702;SDS011;60933;46.398;-63.798;2023-07-02T06:23:09;6.47;;;4.90;;
66702;SDS011;60933;46.398;-63.798;2023-07-02T06:25:35;6.78;;;5.05;;
66702;SDS011;60933;46.398;-63.798;2023-07-02T06:28:01;6.72;;;4.47;;
66702;SDS011;60933;46.398;-63.798;2023-07-02T06:30:27;6.82;;;3.85;;
66702;SDS011;60933;46.398;-63.798;2023-07-02T06:32:54;6.70;;;4.85;;
66702;SDS011;60933;46.398;-63.798;2023-07-02T06:35:20;7.30;;;4.53;;
66702;SDS011;60933;46.398;-63.798;2023-07-02T06:37:47;7.43;;;4.85;;
66702;SDS011;60933;46.398;-63.798;2023-07-02T06:40:13;6.88;;;4.45;;
66702;SDS011;60933;46.398;-63.798;2023-07-02T06:42:39;8.13;;;4.50;;
66702;SDS011;60933;46.398;-63.798;2023-07-02T06:45:06;7.97;;;5.20;;
66702;SDS011;60933;46.398;-63.798;2023-07-02T06:47:32;7.45;;;5.30;;
66702;SDS011;60933;46.398;-63.798;2023-07-02T06:49:58;8.45;;;5.13;;
66702;SDS011;60933;46.398;-63.798;2023-07-02T06:52:25;6.82;;;4.97;;
66702;SDS011;60933;46.398;-63.798;2023-07-02T06:54:51;7.55;;;5.00;;
66702;SDS011;60933;46.398;-63.798;2023-07-02T06:57:17;6.97;;;4.40;;
66702;SDS011;60933;46.398;-63.798;2023-07-02T06:59:43;6.00;;;4.80;;
66702;SDS011;60933;46.398;-63.798;2023-07-02T07:02:09;8.80;;;5.32;;
66702;SDS011;60933;46.398;-63.798;2023-07-02T07:04:35;8.55;;;6.07;;
66702;SDS011;60933;46.398;-63.798;2023-07-02T07:07:01;7.93;;;5.25;;
66702;SDS011;60933;46.398;-63.798;2023-07-02T07:09:31;6.45;;;5.18;;
66702;SDS011;60933;46.398;-63.798;2023-07-02T07:11:57;9.07;;;6.13;;
66702;SDS011;60933;46.398;-63.798;2023-07-02T07:14:24;8.13;;;5.93;;
66702;SDS011;60933;46.398;-63.798;2023-07-02T07:16:50;8.98;;;5.45;;
66702;SDS011;60933;46.398;-63.798;2023-07-02T07:19:16;8.32;;;5.63;;
66702;SDS011;60933;46.398;-63.798;2023-07-02T07:21:42;8.70;;;5.10;;
66702;SDS011;60933;46.398;-63.798;2023-07-02T07:24:09;8.35;;;5.35;;
66702;SDS011;60933;46.398;-63.798;2023-07-02T07:26:35;10.23;;;6.45;;
66702;SDS011;60933;46.398;-63.798;2023-07-02T07:29:01;8.90;;;6.07;;
66702;SDS011;60933;46.398;-63.798;2023-07-02T07:31:29;8.65;;;5.28;;
66702;SDS011;60933;46.398;-63.798;2023-07-02T07:33:55;8.05;;;5.57;;
66702;SDS011;60933;46.398;-63.798;2023-07-02T07:36:21;7.85;;;5.22;;
66702;SDS011;60933;46.398;-63.798;2023-07-02T07:38:47;9.18;;;5.60;;
66702;SDS011;60933;46.398;-63.798;2023-07-02T07:41:13;8.25;;;5.65;;
66702;SDS011;60933;46.398;-63.798;2023-07-02T07:43:40;7.70;;;5.00;;
66702;SDS011;60933;46.398;-63.798;2023-07-02T07:46:06;9.13;;;5.63;;
66702;SDS011;60933;46.398;-63.798;2023-07-02T07:48:32;7.88;;;5.35;;
66702;SDS011;60933;46.398;-63.798;2023-07-02T07:50:58;7.57;;;5.57;;
66702;SDS011;60933;46.398;-63.798;2023-07-02T07:53:25;8.63;;;5.82;;
66702;SDS011;60933;46.398;-63.798;2023-07-02T07:55:51;8.98;;;5.95;;
66702;SDS011;60933;46.398;-63.798;2023-07-02T07:58:17;9.70;;;6.07;;
66702;SDS011;60933;46.398;-63.798;2023-07-02T08:00:43;8.73;;;5.82;;
66702;SDS011;60933;46.398;-63.798;2023-07-02T08:03:09;9.02;;;5.55;;
66702;SDS011;60933;46.398;-63.798;2023-07-02T08:05:36;7.82;;;5.75;;
66702;SDS011;60933;46.398;-63.798;2023-07-02T08:08:02;8.00;;;5.72;;
66702;SDS011;60933;46.398;-63.798;2023-07-02T08:10:28;8.05;;;5.45;;
66702;SDS011;60933;46.398;-63.798;2023-07-02T08:12:54;7.22;;;4.93;;
66702;SDS011;60933;46.398;-63.798;2023-07-02T08:15:20;7.18;;;4.57;;
66702;SDS011;60933;46.398;-63.798;2023-07-02T08:17:46;7.00;;;4.93;;
66702;SDS011;60933;46.398;-63.798;2023-07-02T08:20:13;8.73;;;5.35;;
66702;SDS011;60933;46.398;-63.798;2023-07-02T08:22:39;8.80;;;5.20;;
66702;SDS011;60933;46.398;-63.798;2023-07-02T08:25:06;7.90;;;5.75;;
66702;SDS011;60933;46.398;-63.798;2023-07-02T08:27:32;8.30;;;5.70;;
66702;SDS011;60933;46.398;-63.798;2023-07-02T08:29:58;9.30;;;6.03;;
66702;SDS011;60933;46.398;-63.798;2023-07-02T08:32:25;9.23;;;5.40;;
66702;SDS011;60933;46.398;-63.798;2023-07-02T08:34:51;9.13;;;5.35;;
66702;SDS011;60933;46.398;-63.798;2023-07-02T08:37:17;8.68;;;6.25;;
66702;SDS011;60933;46.398;-63.798;2023-07-02T08:39:44;9.57;;;6.22;;
66702;SDS011;60933;46.398;-63.798;2023-07-02T08:42:10;9.00;;;6.30;;
66702;SDS011;60933;46.398;-63.798;2023-07-02T08:44:36;10.00;;;6.55;;
66702;SDS011;60933;46.398;-63.798;2023-07-02T08:47:02;9.40;;;5.90;;
66702;SDS011;60933;46.398;-63.798;2023-07-02T08:49:28;12.48;;;7.53;;
66702;SDS011;60933;46.398;-63.798;2023-07-02T08:51:55;10.90;;;6.70;;
66702;SDS011;60933;46.398;-63.798;2023-07-02T08:54:21;10.80;;;7.10;;
66702;SDS011;60933;46.398;-63.798;2023-07-02T08:56:47;7.57;;;5.70;;
66702;SDS011;60933;46.398;-63.798;2023-07-02T08:59:13;9.80;;;6.78;;
66702;SDS011;60933;46.398;-63.798;2023-07-02T09:01:49;8.05;;;5.22;;
66702;SDS011;60933;46.398;-63.798;2023-07-02T09:04:20;10.02;;;6.85;;
66702;SDS011;60933;46.398;-63.798;2023-07-02T09:06:51;11.27;;;7.07;;
66702;SDS011;60933;46.398;-63.798;2023-07-02T09:09:32;11.40;;;6.97;;
66702;SDS011;60933;46.398;-63.798;2023-07-02T09:11:59;9.43;;;6.38;;
66702;SDS011;60933;46.398;-63.798;2023-07-02T09:14:26;10.07;;;6.63;;
66702;SDS011;60933;46.398;-63.798;2023-07-02T09:17:07;11.20;;;7.22;;
66702;SDS011;60933;46.398;-63.798;2023-07-02T09:19:35;9.27;;;6.88;;
66702;SDS011;60933;46.398;-63.798;2023-07-02T09:22:02;9.55;;;6.50;;
66702;SDS011;60933;46.398;-63.798;2023-07-02T09:24:29;10.50;;;7.65;;
66702;SDS011;60933;46.398;-63.798;2023-07-02T09:26:57;11.77;;;7.35;;
66702;SDS011;60933;46.398;-63.798;2023-07-02T09:29:28;10.07;;;6.63;;
66702;SDS011;60933;46.398;-63.798;2023-07-02T09:31:57;9.02;;;6.32;;
66702;SDS011;60933;46.398;-63.798;2023-07-02T09:34:31;10.73;;;6.75;;
66702;SDS011;60933;46.398;-63.798;2023-07-02T09:36:59;11.73;;;6.90;;
66702;SDS011;60933;46.398;-63.798;2023-07-02T09:39:35;8.93;;;6.57;;
66702;SDS011;60933;46.398;-63.798;2023-07-02T09:42:02;10.75;;;7.20;;
66702;SDS011;60933;46.398;-63.798;2023-07-02T09:44:32;10.15;;;6.22;;
66702;SDS011;60933;46.398;-63.798;2023-07-02T09:47:03;8.77;;;6.38;;
66702;SDS011;60933;46.398;-63.798;2023-07-02T09:49:33;10.80;;;6.88;;
66702;SDS011;60933;46.398;-63.798;2023-07-02T09:52:02;10.30;;;6.63;;
66702;SDS011;60933;46.398;-63.798;2023-07-02T09:54:29;10.93;;;6.38;;
66702;SDS011;60933;46.398;-63.798;2023-07-02T09:56:59;9.18;;;6.50;;
66702;SDS011;60933;46.398;-63.798;2023-07-02T09:59:26;9.95;;;6.57;;
66702;SDS011;60933;46.398;-63.798;2023-07-02T10:01:53;9.18;;;6.25;;
66702;SDS011;60933;46.398;-63.798;2023-07-02T10:04:20;7.55;;;5.85;;
66702;SDS011;60933;46.398;-63.798;2023-07-02T10:06:50;11.15;;;6.60;;
66702;SDS011;60933;46.398;-63.798;2023-07-02T10:09:21;9.68;;;6.25;;
66702;SDS011;60933;46.398;-63.798;2023-07-02T10:12:00;8.93;;;6.35;;
66702;SDS011;60933;46.398;-63.798;2023-07-02T10:14:26;8.23;;;5.40;;
66702;SDS011;60933;46.398;-63.798;2023-07-02T10:16:53;7.85;;;6.00;;
66702;SDS011;60933;46.398;-63.798;2023-07-02T10:19:20;8.65;;;6.00;;
66702;SDS011;60933;46.398;-63.798;2023-07-02T10:22:00;8.38;;;5.75;;
66702;SDS011;60933;46.398;-63.798;2023-07-02T10:24:27;7.25;;;5.63;;
66702;SDS011;60933;46.398;-63.798;2023-07-02T10:26:54;9.43;;;5.15;;
66702;SDS011;60933;46.398;-63.798;2023-07-02T10:29:25;8.13;;;6.03;;
66702;SDS011;60933;46.398;-63.798;2023-07-02T10:31:53;8.63;;;6.25;;
66702;SDS011;60933;46.398;-63.798;2023-07-02T10:37:02;9.38;;;6.20;;
66702;SDS011;60933;46.398;-63.798;2023-07-02T10:39:29;9.43;;;6.30;;
66702;SDS011;60933;46.398;-63.798;2023-07-02T10:42:09;8.20;;;5.70;;
66702;SDS011;60933;46.398;-63.798;2023-07-02T10:44:46;8.48;;;5.50;;
66702;SDS011;60933;46.398;-63.798;2023-07-02T10:47:13;10.02;;;6.00;;
66702;SDS011;60933;46.398;-63.798;2023-07-02T10:49:39;7.30;;;5.55;;
66702;SDS011;60933;46.398;-63.798;2023-07-02T10:52:06;8.30;;;5.18;;
66702;SDS011;60933;46.398;-63.798;2023-07-02T10:54:38;8.30;;;5.30;;
66702;SDS011;60933;46.398;-63.798;2023-07-02T10:57:15;7.50;;;5.43;;
66702;SDS011;60933;46.398;-63.798;2023-07-02T10:59:46;9.80;;;6.22;;
66702;SDS011;60933;46.398;-63.798;2023-07-02T11:02:13;8.95;;;6.03;;
66702;SDS011;60933;46.398;-63.798;2023-07-02T11:04:40;9.70;;;5.50;;
66702;SDS011;60933;46.398;-63.798;2023-07-02T11:07:06;8.60;;;5.40;;
66702;SDS011;60933;46.398;-63.798;2023-07-02T11:09:32;8.35;;;5.95;;
66702;SDS011;60933;46.398;-63.798;2023-07-02T11:11:59;8.82;;;5.65;;
66702;SDS011;60933;46.398;-63.798;2023-07-02T11:14:33;7.95;;;5.00;;
66702;SDS011;60933;46.398;-63.798;2023-07-02T11:17:03;8.88;;;5.30;;
66702;SDS011;60933;46.398;-63.798;2023-07-02T11:19:32;8.20;;;5.22;;
66702;SDS011;60933;46.398;-63.798;2023-07-02T11:21:58;6.82;;;4.53;;
66702;SDS011;60933;46.398;-63.798;2023-07-02T11:24:30;6.60;;;5.18;;
66702;SDS011;60933;46.398;-63.798;2023-07-02T11:26:57;6.25;;;4.65;;
66702;SDS011;60933;46.398;-63.798;2023-07-02T11:29:29;6.32;;;4.50;;
66702;SDS011;60933;46.398;-63.798;2023-07-02T11:32:11;5.85;;;4.53;;
66702;SDS011;60933;46.398;-63.798;2023-07-02T11:34:38;7.32;;;4.63;;
66702;SDS011;60933;46.398;-63.798;2023-07-02T11:37:04;6.40;;;4.80;;
66702;SDS011;60933;46.398;-63.798;2023-07-02T11:39:31;6.63;;;4.60;;
66702;SDS011;60933;46.398;-63.798;2023-07-02T11:41:58;7.90;;;4.43;;
66702;SDS011;60933;46.398;-63.798;2023-07-02T11:44:24;7.20;;;5.05;;
66702;SDS011;60933;46.398;-63.798;2023-07-02T11:46:50;7.72;;;4.78;;
66702;SDS011;60933;46.398;-63.798;2023-07-02T11:49:18;5.60;;;4.65;;
66702;SDS011;60933;46.398;-63.798;2023-07-02T11:51:44;7.15;;;4.88;;
66702;SDS011;60933;46.398;-63.798;2023-07-02T11:54:19;6.95;;;5.03;;
66702;SDS011;60933;46.398;-63.798;2023-07-02T11:56:45;6.05;;;4.90;;
66702;SDS011;60933;46.398;-63.798;2023-07-02T11:59:11;6.15;;;4.95;;
66702;SDS011;60933;46.398;-63.798;2023-07-02T12:01:37;6.80;;;4.70;;
66702;SDS011;60933;46.398;-63.798;2023-07-02T12:04:03;5.30;;;4.20;;
66702;SDS011;60933;46.398;-63.798;2023-07-02T12:06:31;5.82;;;4.80;;
66702;SDS011;60933;46.398;-63.798;2023-07-02T12:08:57;5.07;;;4.38;;
66702;SDS011;60933;46.398;-63.798;2023-07-02T12:11:23;5.05;;;3.75;;
66702;SDS011;60933;46.398;-63.798;2023-07-02T12:13:49;5.13;;;4.30;;
66702;SDS011;60933;46.398;-63.798;2023-07-02T12:16:15;4.90;;;4.32;;
66702;SDS011;60933;46.398;-63.798;2023-07-02T12:18:41;5.40;;;4.63;;
66702;SDS011;60933;46.398;-63.798;2023-07-02T12:21:07;5.90;;;3.45;;
66702;SDS011;60933;46.398;-63.798;2023-07-02T12:23:34;5.25;;;4.03;;
66702;SDS011;60933;46.398;-63.798;2023-07-02T12:26:00;6.85;;;5.10;;
66702;SDS011;60933;46.398;-63.798;2023-07-02T12:28:29;7.03;;;3.90;;
66702;SDS011;60933;46.398;-63.798;2023-07-02T12:30:55;5.40;;;4.53;;
66702;SDS011;60933;46.398;-63.798;2023-07-02T12:33:21;5.60;;;4.72;;
66702;SDS011;60933;46.398;-63.798;2023-07-02T12:35:47;5.13;;;4.13;;
66702;SDS011;60933;46.398;-63.798;2023-07-02T12:38:13;5.80;;;4.65;;
66702;SDS011;60933;46.398;-63.798;2023-07-02T12:40:40;4.97;;;4.47;;
66702;SDS011;60933;46.398;-63.798;2023-07-02T12:43:06;5.53;;;4.40;;
66702;SDS011;60933;46.398;-63.798;2023-07-02T12:45:32;7.18;;;4.68;;
66702;SDS011;60933;46.398;-63.798;2023-07-02T12:47:58;7.22;;;5.07;;
66702;SDS011;60933;46.398;-63.798;2023-07-02T12:50:24;8.43;;;5.65;;
66702;SDS011;60933;46.398;-63.798;2023-07-02T12:52:50;8.95;;;5.53;;
66702;SDS011;60933;46.398;-63.798;2023-07-02T12:55:16;6.50;;;5.18;;
66702;SDS011;60933;46.398;-63.798;2023-07-02T12:57:43;7.85;;;5.80;;
66702;SDS011;60933;46.398;-63.798;2023-07-02T13:00:09;6.00;;;4.68;;
66702;SDS011;60933;46.398;-63.798;2023-07-02T13:02:35;6.32;;;4.65;;
66702;SDS011;60933;46.398;-63.798;2023-07-02T13:05:01;7.00;;;4.80;;
66702;SDS011;60933;46.398;-63.798;2023-07-02T13:07:28;6.43;;;4.70;;
66702;SDS011;60933;46.398;-63.798;2023-07-02T13:09:55;4.53;;;3.92;;
66702;SDS011;60933;46.398;-63.798;2023-07-02T13:12:21;5.18;;;4.30;;
66702;SDS011;60933;46.398;-63.798;2023-07-02T13:14:47;5.30;;;4.30;;
66702;SDS011;60933;46.398;-63.798;2023-07-02T13:17:13;5.75;;;4.20;;
66702;SDS011;60933;46.398;-63.798;2023-07-02T13:19:39;6.43;;;4.80;;
66702;SDS011;60933;46.398;-63.798;2023-07-02T13:22:05;6.13;;;5.00;;
66702;SDS011;60933;46.398;-63.798;2023-07-02T13:24:32;4.70;;;3.92;;
66702;SDS011;60933;46.398;-63.798;2023-07-02T13:27:01;6.18;;;4.53;;
66702;SDS011;60933;46.398;-63.798;2023-07-02T13:29:30;6.00;;;4.32;;
66702;SDS011;60933;46.398;-63.798;2023-07-02T13:31:56;6.28;;;4.53;;
66702;SDS011;60933;46.398;-63.798;2023-07-02T13:34:22;5.30;;;3.88;;
66702;SDS011;60933;46.398;-63.798;2023-07-02T13:36:48;8.40;;;5.00;;
66702;SDS011;60933;46.398;-63.798;2023-07-02T13:39:14;5.53;;;4.28;;
66702;SDS011;60933;46.398;-63.798;2023-07-02T13:41:40;6.53;;;4.10;;
66702;SDS011;60933;46.398;-63.798;2023-07-02T13:44:06;5.57;;;4.28;;
66702;SDS011;60933;46.398;-63.798;2023-07-02T13:46:33;5.05;;;4.55;;
66702;SDS011;60933;46.398;-63.798;2023-07-02T13:48:59;5.85;;;4.30;;
66702;SDS011;60933;46.398;-63.798;2023-07-02T13:51:25;4.57;;;4.10;;
66702;SDS011;60933;46.398;-63.798;2023-07-02T13:53:51;7.10;;;4.65;;
66702;SDS011;60933;46.398;-63.798;2023-07-02T13:56:17;5.53;;;4.40;;
66702;SDS011;60933;46.398;-63.798;2023-07-02T14:01:22;5.18;;;4.57;;
66702;SDS011;60933;46.398;-63.798;2023-07-02T14:03:49;5.53;;;4.43;;
66702;SDS011;60933;46.398;-63.798;2023-07-02T14:06:15;5.65;;;4.65;;
66702;SDS011;60933;46.398;-63.798;2023-07-02T14:08:41;4.90;;;4.07;;
66702;SDS011;60933;46.398;-63.798;2023-07-02T14:11:07;5.00;;;3.70;;
66702;SDS011;60933;46.398;-63.798;2023-07-02T14:13:34;4.55;;;4.15;;
66702;SDS011;60933;46.398;-63.798;2023-07-02T14:16:01;5.43;;;4.47;;
66702;SDS011;60933;46.398;-63.798;2023-07-02T14:18:28;4.15;;;3.75;;
66702;SDS011;60933;46.398;-63.798;2023-07-02T14:20:54;5.10;;;4.07;;
66702;SDS011;60933;46.398;-63.798;2023-07-02T14:23:20;4.93;;;3.80;;
66702;SDS011;60933;46.398;-63.798;2023-07-02T14:25:46;4.55;;;3.92;;